»·PEaware :: AMX519 KSAN-KLAS

AMX519 :: KSAN-KLAS

FLIGHT INFORMATION

Flight Status: Arrived
Operator:
Aeromexico
More flights by this operator :: More flights under this callsign
Pilot: Guillermo C. (14369)
Aircraft: Unknown
(733)
More flights by this aircraft type
Origin: KSAN San Diego Intl-Lindbergh
United States
Destination: KLAS McCarran Intl
United States
More flights between these airports :: More routes between these airports
Route: +PEBLE6 SXC LAX DAG KEPEC6
File this flight plan on PilotEdge
Remarks:
Altitude:
(Current/Filed)
34,000ft
Speed:
(Current/Filed)
438kts
Departed: 29-Nov-17 01:34 PM
Arrived: 29-Nov-17 02:33 PM
Distance/Time
Traveled:
225nm/0:59
Distance/Time
To Go:
Arrived

Flight Plot

Page will automatically refresh every two minutes.

Flight plan parsing failed; only flown route is shown


Map Options




Map Legend


Flown Route
Filed Route
Departure Airport
Arrival Airport
Navaid (VOR, NDB)
Fix

Horizontal Profiles

Position Reports

Time Latitude Longitude Heading Altitude Ground
Speed
29-Nov-17 13:12 32.732864 -117.201800 0 17ft 0kts
29-Nov-17 13:13 32.732864 -117.201800 82 17ft 0kts
29-Nov-17 13:14 32.732864 -117.201800 82 17ft 0kts
29-Nov-17 13:15 32.732864 -117.201800 82 17ft 0kts
29-Nov-17 13:16 32.732864 -117.201800 82 17ft 0kts
29-Nov-17 13:17 32.732864 -117.201800 82 17ft 0kts
29-Nov-17 13:18 32.732864 -117.201800 82 17ft 0kts
29-Nov-17 13:19 32.732864 -117.201800 82 17ft 0kts
29-Nov-17 13:20 32.732864 -117.201800 82 17ft 0kts
29-Nov-17 13:21 32.732864 -117.201800 82 17ft 0kts
29-Nov-17 13:22 32.732864 -117.201800 82 17ft 0kts
29-Nov-17 13:23 32.732864 -117.201800 82 17ft 0kts
29-Nov-17 13:24 32.732864 -117.201800 82 17ft 0kts
29-Nov-17 13:25 32.732864 -117.201800 82 17ft 0kts
29-Nov-17 13:26 32.732864 -117.201800 82 17ft 0kts
29-Nov-17 13:27 32.732864 -117.201800 82 17ft 0kts
29-Nov-17 13:28 32.732490 -117.202463 346 17ft 0kts
29-Nov-17 13:29 32.732491 -117.202459 345 17ft 0kts
29-Nov-17 13:30 32.732491 -117.202459 343 17ft 0kts
29-Nov-17 13:31 32.732491 -117.202459 343 17ft 0kts
29-Nov-17 13:32 32.732491 -117.202459 343 17ft 0kts
29-Nov-17 13:33 32.732590 -117.202495 341 17ft 3kts
29-Nov-17 13:34 32.734696 -117.198612 106 17ft 22kts
29-Nov-17 13:35 32.732947 -117.191370 105 19ft 25kts
29-Nov-17 13:36 32.730888 -117.182891 106 17ft 22kts
29-Nov-17 13:37 32.729508 -117.176729 72 22ft 0kts
29-Nov-17 13:38 32.729508 -117.176729 72 22ft 0kts
29-Nov-17 13:39 32.730596 -117.177410 285 23ft 44kts
29-Nov-17 13:40 32.746225 -117.219692 304 1505ft 176kts
29-Nov-17 13:41 32.776907 -117.274533 302 3688ft 237kts
29-Nov-17 13:42 32.816726 -117.344993 301 6599ft 275kts
29-Nov-17 13:43 32.860334 -117.421813 303 9823ft 292kts
29-Nov-17 13:44 32.936217 -117.483375 325 11678ft 362kts
29-Nov-17 13:45 33.013214 -117.559543 301 14544ft 370kts
29-Nov-17 13:46 33.071398 -117.659464 301 15017ft 376kts
29-Nov-17 13:47 33.132574 -117.761601 304 16941ft 385kts
29-Nov-17 13:48 33.192833 -117.867855 288 19474ft 391kts
29-Nov-17 13:49 33.234100 -117.990061 287 21840ft 402kts
29-Nov-17 13:50 33.275834 -118.115653 287 23144ft 409kts
29-Nov-17 13:51 33.317602 -118.241887 287 23969ft 413kts
29-Nov-17 13:52 33.361784 -118.369941 298 26026ft 427kts
29-Nov-17 13:53 33.471939 -118.422809 358 27768ft 471kts
29-Nov-17 13:54 33.601387 -118.423494 355 30104ft 461kts
29-Nov-17 13:55 33.726613 -118.426188 354 32583ft 442kts
29-Nov-17 13:56 33.847000 -118.428862 353 34106ft 441kts
29-Nov-17 13:57 33.966565 -118.401706 42 34096ft 468kts
29-Nov-17 13:58 34.028285 -118.265952 57 34103ft 470kts
29-Nov-17 13:59 34.099860 -118.138685 55 34097ft 469kts
29-Nov-17 14:00 34.171287 -118.012227 55 34108ft 469kts
29-Nov-17 14:01 34.244391 -117.882301 55 34121ft 469kts
29-Nov-17 14:02 34.317116 -117.752571 55 34135ft 469kts
29-Nov-17 14:03 34.389288 -117.623370 55 34154ft 473kts
29-Nov-17 14:04 34.462672 -117.491525 55 34200ft 473kts
29-Nov-17 14:05 34.536004 -117.359284 55 34195ft 472kts
29-Nov-17 14:06 34.608722 -117.227670 56 34192ft 473kts
29-Nov-17 14:07 34.681426 -117.095577 56 34192ft 473kts
29-Nov-17 14:08 34.754752 -116.961865 56 34196ft 479kts
29-Nov-17 14:09 34.829787 -116.827857 52 34142ft 481kts
29-Nov-17 14:10 34.912553 -116.697276 51 31030ft 498kts
29-Nov-17 14:11 34.997901 -116.563386 52 27401ft 501kts
29-Nov-17 14:12 35.081804 -116.434898 47 24864ft 474kts
29-Nov-17 14:13 35.165713 -116.326403 45 23934ft 419kts
29-Nov-17 14:14 35.247650 -116.223411 46 23597ft 438kts
29-Nov-17 14:15 35.331127 -116.117855 46 20925ft 426kts
29-Nov-17 14:16 35.411165 -116.016612 46 18687ft 405kts
29-Nov-17 14:17 35.487875 -115.919291 46 16332ft 390kts
29-Nov-17 14:18 35.559594 -115.827918 46 14328ft 370kts
29-Nov-17 14:19 35.628503 -115.739706 46 12385ft 355kts
29-Nov-17 14:20 35.692281 -115.658994 45 12605ft 308kts
29-Nov-17 14:21 35.753010 -115.582573 45 13073ft 314kts
29-Nov-17 14:22 35.824254 -115.525315 30 13094ft 296kts
29-Nov-17 14:23 35.897654 -115.471365 30 11882ft 311kts
29-Nov-17 14:24 35.969476 -115.418789 30 11387ft 304kts
29-Nov-17 14:25 36.029190 -115.354777 87 11062ft 275kts
29-Nov-17 14:26 36.023122 -115.261537 96 10006ft 269kts
29-Nov-17 14:27 36.016605 -115.169802 95 9014ft 256kts
29-Nov-17 14:28 36.010467 -115.077129 95 8043ft 274kts
29-Nov-17 14:29 36.004754 -114.991982 94 8027ft 248kts
29-Nov-17 14:30 36.000398 -114.920857 94 8047ft 243kts
29-Nov-17 14:31 36.026934 -114.857932 359 8105ft 199kts
29-Nov-17 14:32 36.073553 -114.857515 331 7673ft 192kts
29-Nov-17 14:33 36.077965 -114.920017 256 6533ft 170kts
29-Nov-17 14:34 36.073068 -114.967255 271 5765ft 162kts
29-Nov-17 14:35 36.074018 -115.022823 274 4008ft 167kts
29-Nov-17 14:36 36.073037 -115.076425 270 2828ft 139kts
29-Nov-17 14:37 36.073700 -115.135648 267 2073ft 143kts
29-Nov-17 14:38 36.074439 -115.154542 300 2136ft 13kts
29-Nov-17 14:39 36.074472 -115.154612 300 2136ft 0kts
29-Nov-17 14:40 36.076310 -115.157380 313 2143ft 27kts
29-Nov-17 14:41 36.077556 -115.158263 0 2144ft 0kts
29-Nov-17 14:42 36.079302 -115.158259 359 2139ft 22kts
29-Nov-17 14:43 36.081615 -115.154987 91 2120ft 29kts
29-Nov-17 14:44 36.082342 -115.152915 358 2112ft 0kts
29-Nov-17 14:45 36.082342 -115.152915 358 2112ft 0kts
29-Nov-17 14:46 36.082342 -115.152915 358 2112ft 0kts
29-Nov-17 14:47 36.082342 -115.152915 358 2112ft 0kts
29-Nov-17 14:48 36.082342 -115.152915 358 2112ft 0kts
29-Nov-17 14:49 36.082342 -115.152915 358 2112ft 0kts
29-Nov-17 14:50 36.082342 -115.152915 358 2112ft 0kts
29-Nov-17 14:51 36.082342 -115.152915 358 2112ft 0kts
29-Nov-17 14:52 36.082342 -115.152915 358 2112ft 0kts

Navigation Log

Ident Type
Flight plan parsing failed, navigation log unavailable